Terminal Aerodrome Forecast
Issued by NWS

Home | Current Version | Previous Version | Graphics & Text | Print | Product List | Glossary On
Versions: 1 2 3 4 5 6 7 8 9 10 11 12 13
000
FTUS45 KGGW 221124
TAFOLF
TAF
KOLF 221124Z 2212/2312 VRB05KT P6SM SCT110
     FM221500 08007KT P6SM VCSH BKN090
     FM221900 09011KT P6SM VCTS BKN080CB
     FM230900 34007KT P6SM VCSH BKN100=

USA.gov is the U.S. government's official web portal to all federal, state and local government web resources and services.